Aviation Digital Data Service (ADDS)

Output produced by METARs form (1201 UTC 19 January 2019)
found at http://www.aviationweather.gov/metar/data/
 
Forecast for: ESPA (KALLAX/LULEA (AF, SE)
Text: TAF ESPA 191130Z 1912/1920 32004KT CAVOK
Forecast period: 1200 to 2000 UTC 19 January 2019
Forecast type: FROM: standard forecast or significant change
Winds: from the NW (320 degrees) at 5 MPH (4 knots; 2.1 m/s)
Visibility: 6 or more miles 10+ km)
Ceiling: unknown
Clouds: missing
Weather: NSW  (no significant weather)